createdAt,value
2023-05-02T00:00:00.653Z,15.65
2023-05-02T00:01:06.291Z,15.64
2023-05-02T00:02:10.411Z,15.62
2023-05-02T00:03:14.220Z,15.61
2023-05-02T00:04:18.244Z,15.63
2023-05-02T00:05:21.788Z,15.63
2023-05-02T00:06:25.216Z,15.60
2023-05-02T00:07:29.752Z,15.57
2023-05-02T00:08:33.411Z,15.56
2023-05-02T00:09:36.807Z,15.55
2023-05-02T00:10:40.921Z,15.56
2023-05-02T00:11:45.119Z,15.54
2023-05-02T00:12:48.577Z,15.53
2023-05-02T00:13:52.386Z,15.49
2023-05-02T00:14:56.218Z,15.51
2023-05-02T00:15:59.775Z,15.50
2023-05-02T00:17:03.548Z,15.51
2023-05-02T00:18:07.311Z,15.52
2023-05-02T00:19:10.937Z,15.52
2023-05-02T00:20:14.468Z,15.53
2023-05-02T00:21:17.993Z,15.53
2023-05-02T00:22:21.584Z,15.52
2023-05-02T00:23:25.380Z,15.52
2023-05-02T00:24:28.945Z,15.50
2023-05-02T00:25:32.277Z,15.50
2023-05-02T00:26:35.518Z,15.52
2023-05-02T00:27:39.074Z,15.51
2023-05-02T00:28:43.089Z,15.48
2023-05-02T00:29:48.503Z,15.46
2023-05-02T00:30:52.325Z,15.43
2023-05-02T00:31:56.094Z,15.41
2023-05-02T00:32:59.899Z,15.39
2023-05-02T00:34:03.340Z,15.39
2023-05-02T00:35:07.860Z,15.38
2023-05-02T00:36:17.870Z,15.38
2023-05-02T00:37:21.700Z,15.36
2023-05-02T00:38:24.846Z,15.35
2023-05-02T00:39:28.809Z,15.38
2023-05-02T00:40:32.306Z,15.35
2023-05-02T00:41:35.955Z,15.32
2023-05-02T00:42:39.552Z,15.28
2023-05-02T00:43:43.302Z,15.24
2023-05-02T00:44:47.536Z,15.23
2023-05-02T00:45:51.259Z,15.21
2023-05-02T00:46:56.386Z,15.20
2023-05-02T00:48:00.616Z,15.19
2023-05-02T00:49:04.207Z,15.18
2023-05-02T00:50:08.489Z,15.17
2023-05-02T00:51:13.930Z,15.17
2023-05-02T00:52:17.300Z,15.19
2023-05-02T00:53:20.946Z,15.19
2023-05-02T00:54:24.532Z,15.19
2023-05-02T00:55:27.803Z,15.18
2023-05-02T00:56:31.243Z,15.19
2023-05-02T00:57:34.530Z,15.18
2023-05-02T00:58:41.837Z,15.18
2023-05-02T00:59:45.588Z,15.18
2023-05-02T01:01:26.213Z,15.19
2023-05-02T01:02:50.260Z,15.18
2023-05-02T01:04:05.422Z,15.15
2023-05-02T01:05:16.459Z,15.14
2023-05-02T01:06:48.059Z,15.14
2023-05-02T01:08:10.724Z,15.13
2023-05-02T01:09:51.215Z,15.12
2023-05-02T01:11:05.976Z,15.12
2023-05-02T01:12:20.928Z,15.10
2023-05-02T01:13:34.832Z,15.08
2023-05-02T01:14:43.081Z,15.07
2023-05-02T01:15:46.707Z,15.05
2023-05-02T01:16:51.031Z,15.05
2023-05-02T01:17:55.554Z,15.05
2023-05-02T01:18:59.414Z,15.03
2023-05-02T01:20:14.854Z,15.04
2023-05-02T01:21:18.400Z,15.03
2023-05-02T01:22:21.799Z,15.01
2023-05-02T01:23:34.665Z,15.01
2023-05-02T01:25:03.361Z,15.01
2023-05-02T01:26:49.616Z,15.00
2023-05-02T01:27:59.576Z,14.99
2023-05-02T01:29:07.130Z,14.98
2023-05-02T01:30:11.441Z,14.97
2023-05-02T01:31:14.855Z,14.97
2023-05-02T01:32:18.708Z,14.95
2023-05-02T01:33:22.039Z,14.96
2023-05-02T01:34:26.221Z,14.94
2023-05-02T01:35:29.574Z,14.91
2023-05-02T01:36:33.184Z,14.86
2023-05-02T01:37:37.693Z,14.83
2023-05-02T01:38:41.443Z,14.80
2023-05-02T01:39:44.975Z,14.77
2023-05-02T01:40:48.336Z,14.76
2023-05-02T01:41:52.998Z,14.76
2023-05-02T01:42:56.257Z,14.74
2023-05-02T01:44:00.587Z,14.74
2023-05-02T01:45:04.920Z,14.72
2023-05-02T01:46:08.532Z,14.72
2023-05-02T01:47:12.281Z,14.73
2023-05-02T01:48:16.765Z,14.73
2023-05-02T01:49:20.722Z,14.73
2023-05-02T01:50:25.467Z,14.74
2023-05-02T01:51:32.434Z,14.77
2023-05-02T01:52:36.265Z,14.77
2023-05-02T01:53:39.636Z,14.79
2023-05-02T01:54:43.051Z,14.78
2023-05-02T01:55:46.774Z,14.79
2023-05-02T01:56:50.454Z,14.79
2023-05-02T01:57:54.723Z,14.80
2023-05-02T01:58:58.174Z,14.81
2023-05-02T02:00:02.457Z,14.82
2023-05-02T02:01:28.463Z,14.82
2023-05-02T02:02:32.180Z,14.81
2023-05-02T02:03:36.033Z,14.81
2023-05-02T02:04:39.867Z,14.81
2023-05-02T02:05:46.388Z,14.81
2023-05-02T02:06:53.678Z,14.81
2023-05-02T02:07:57.445Z,14.82
2023-05-02T02:09:01.294Z,14.83
2023-05-02T02:10:05.359Z,14.84
2023-05-02T02:11:11.689Z,14.84
2023-05-02T02:12:50.019Z,14.83
2023-05-02T02:13:56.630Z,14.80
2023-05-02T02:15:18.451Z,14.77
2023-05-02T02:16:26.356Z,14.76
2023-05-02T02:17:44.390Z,14.75
2023-05-02T02:18:47.908Z,14.75
2023-05-02T02:19:51.668Z,14.76
2023-05-02T02:20:55.796Z,14.76
2023-05-02T02:22:00.135Z,14.77
2023-05-02T02:23:05.919Z,14.78
2023-05-02T02:24:09.204Z,14.78
2023-05-02T02:25:13.776Z,14.78
2023-05-02T02:26:20.185Z,14.77
2023-05-02T02:27:24.088Z,14.77
2023-05-02T02:28:27.573Z,14.77
2023-05-02T02:29:32.335Z,14.77
2023-05-02T02:30:36.364Z,14.76
2023-05-02T02:31:41.094Z,14.79
2023-05-02T02:32:44.861Z,14.78
2023-05-02T02:33:48.676Z,14.80
2023-05-02T02:34:52.047Z,14.79
2023-05-02T02:36:28.927Z,14.80
2023-05-02T02:37:40.382Z,14.80
2023-05-02T02:39:10.822Z,14.82
2023-05-02T02:40:35.377Z,14.81
2023-05-02T02:42:08.961Z,14.78
2023-05-02T02:43:21.048Z,14.74
2023-05-02T02:44:46.736Z,14.72
2023-05-02T02:46:22.697Z,14.68
2023-05-02T02:47:38.290Z,14.67
2023-05-02T02:48:57.149Z,14.66
2023-05-02T02:50:11.270Z,14.63
2023-05-02T02:51:16.638Z,14.60
2023-05-02T02:52:23.948Z,14.61
2023-05-02T02:53:48.075Z,14.62
2023-05-02T02:55:00.539Z,14.59
2023-05-02T02:56:06.907Z,14.63
2023-05-02T02:57:26.562Z,14.65
2023-05-02T02:58:41.220Z,14.65
2023-05-02T03:00:09.820Z,14.62
2023-05-02T03:01:17.086Z,14.59
2023-05-02T03:02:20.777Z,14.55
2023-05-02T03:03:26.081Z,14.55
2023-05-02T03:04:32.053Z,14.53
2023-05-02T03:05:35.703Z,14.51
2023-05-02T03:06:38.893Z,14.52
2023-05-02T03:07:42.592Z,14.51
2023-05-02T03:08:46.411Z,14.50
2023-05-02T03:09:54.997Z,14.47
2023-05-02T03:11:00.872Z,14.45
2023-05-02T03:12:05.261Z,14.45
2023-05-02T03:13:10.630Z,14.42
2023-05-02T03:14:16.124Z,14.41
2023-05-02T03:15:51.324Z,14.27
2023-05-02T03:16:59.394Z,14.17
2023-05-02T03:18:03.674Z,14.08
2023-05-02T03:19:07.815Z,14.01
2023-05-02T03:20:11.842Z,13.94
2023-05-02T03:21:15.714Z,13.90
2023-05-02T03:22:20.272Z,13.89
2023-05-02T03:23:23.724Z,13.89
2023-05-02T03:24:29.458Z,13.93
2023-05-02T03:25:33.526Z,13.96
2023-05-02T03:26:37.658Z,13.99
2023-05-02T03:27:44.333Z,14.02
2023-05-02T03:28:51.503Z,14.03
2023-05-02T03:30:01.053Z,14.02
2023-05-02T03:31:07.456Z,14.01
2023-05-02T03:32:14.989Z,14.03
2023-05-02T03:33:20.953Z,14.05
2023-05-02T03:34:24.580Z,14.06
2023-05-02T03:35:29.203Z,14.08
2023-05-02T03:36:32.415Z,14.09
2023-05-02T03:37:36.267Z,14.11
2023-05-02T03:38:39.594Z,14.13
2023-05-02T03:39:47.335Z,14.13
2023-05-02T03:40:50.674Z,14.14
2023-05-02T03:41:54.564Z,14.15
2023-05-02T03:43:00.749Z,14.16
2023-05-02T03:44:08.207Z,14.16
2023-05-02T03:45:12.170Z,14.15
2023-05-02T03:46:16.001Z,14.14
2023-05-02T03:47:21.410Z,14.14
2023-05-02T03:48:25.734Z,14.10
2023-05-02T03:49:28.941Z,14.09
2023-05-02T03:50:33.291Z,14.08
2023-05-02T03:51:37.020Z,14.07
2023-05-02T03:52:40.655Z,14.06
2023-05-02T03:53:44.978Z,14.05
2023-05-02T03:54:48.568Z,14.04
2023-05-02T03:55:52.912Z,14.04
2023-05-02T03:57:05.498Z,14.04
2023-05-02T03:58:11.496Z,14.05
2023-05-02T03:59:16.025Z,14.08
2023-05-02T04:00:20.415Z,14.09
2023-05-02T04:01:32.157Z,14.11
2023-05-02T04:02:38.036Z,14.13
2023-05-02T04:03:45.032Z,14.13
2023-05-02T04:04:50.633Z,14.12
2023-05-02T04:05:56.748Z,14.11
2023-05-02T04:07:00.435Z,14.11
2023-05-02T04:08:05.291Z,14.12
2023-05-02T04:09:09.684Z,14.13
2023-05-02T04:10:19.697Z,14.13
2023-05-02T04:11:34.134Z,14.09
2023-05-02T04:12:39.577Z,14.09
2023-05-02T04:13:43.362Z,14.09
2023-05-02T04:14:46.979Z,14.08
2023-05-02T04:15:51.184Z,14.08
2023-05-02T04:16:58.515Z,14.06
2023-05-02T04:18:16.090Z,14.02
2023-05-02T04:19:20.054Z,14.00
2023-05-02T04:20:23.708Z,13.98
2023-05-02T04:21:29.451Z,13.94
2023-05-02T04:22:34.135Z,13.97
2023-05-02T04:23:41.504Z,13.99
2023-05-02T04:24:46.120Z,14.00
2023-05-02T04:25:54.493Z,14.00
2023-05-02T04:27:01.619Z,14.03
2023-05-02T04:28:05.963Z,14.00
2023-05-02T04:29:09.982Z,14.00
2023-05-02T04:30:14.009Z,14.02
2023-05-02T04:31:21.787Z,13.99
2023-05-02T04:32:25.906Z,13.85
2023-05-02T04:33:30.168Z,13.82
2023-05-02T04:34:34.262Z,13.74
2023-05-02T04:35:38.044Z,13.65
2023-05-02T04:36:42.222Z,13.66
2023-05-02T04:37:49.464Z,13.67
2023-05-02T04:38:54.650Z,13.68
2023-05-02T04:39:59.227Z,13.70
2023-05-02T04:41:08.940Z,13.69
2023-05-02T04:42:18.138Z,13.68
2023-05-02T04:43:51.325Z,13.68
2023-05-02T04:44:55.109Z,13.68
2023-05-02T04:45:59.750Z,13.69
2023-05-02T04:47:10.319Z,13.69
2023-05-02T04:48:15.012Z,13.65
2023-05-02T04:49:18.698Z,13.64
2023-05-02T04:50:22.493Z,13.60
2023-05-02T04:51:26.203Z,13.56
2023-05-02T04:52:29.741Z,13.54
2023-05-02T04:53:33.442Z,13.51
2023-05-02T04:54:37.172Z,13.49
2023-05-02T04:55:41.338Z,13.48
2023-05-02T04:56:45.015Z,13.51
2023-05-02T04:57:49.217Z,13.54
2023-05-02T04:58:53.571Z,13.59
2023-05-02T04:59:57.331Z,13.62
2023-05-02T05:01:01.008Z,13.65
2023-05-02T05:02:05.494Z,13.65
2023-05-02T05:03:09.593Z,13.67
2023-05-02T05:04:14.097Z,13.70
2023-05-02T05:05:18.152Z,13.73
2023-05-02T05:06:22.228Z,13.76
2023-05-02T05:07:26.314Z,13.78
2023-05-02T05:08:31.341Z,13.83
2023-05-02T05:09:35.798Z,13.83
2023-05-02T05:10:41.482Z,13.88
2023-05-02T05:11:47.257Z,13.93
2023-05-02T05:12:52.009Z,13.94
2023-05-02T05:13:58.115Z,13.99
2023-05-02T05:15:03.169Z,14.03
2023-05-02T05:16:08.156Z,14.05
2023-05-02T05:17:12.256Z,13.99
2023-05-02T05:18:15.786Z,13.90
2023-05-02T05:19:19.696Z,13.83
2023-05-02T05:20:22.979Z,13.78
2023-05-02T05:21:29.081Z,13.75
2023-05-02T05:22:44.868Z,13.72
2023-05-02T05:23:49.781Z,13.70
2023-05-02T05:24:59.719Z,13.70
2023-05-02T05:26:13.956Z,13.66
2023-05-02T05:27:20.337Z,13.63
2023-05-02T05:28:23.767Z,13.62
2023-05-02T05:29:27.133Z,13.60
2023-05-02T05:30:32.052Z,13.58
2023-05-02T05:31:37.895Z,13.54
2023-05-02T05:32:42.272Z,13.43
2023-05-02T05:33:45.791Z,13.44
2023-05-02T05:34:54.010Z,13.44
2023-05-02T05:36:11.686Z,13.44
2023-05-02T05:37:15.496Z,13.36
2023-05-02T05:38:18.930Z,13.32
2023-05-02T05:39:23.845Z,13.29
2023-05-02T05:40:30.372Z,13.27
2023-05-02T05:41:35.696Z,13.21
2023-05-02T05:42:43.340Z,13.23
2023-05-02T05:43:53.428Z,13.22
2023-05-02T05:44:56.995Z,13.19
2023-05-02T05:46:00.633Z,13.22
2023-05-02T05:47:05.643Z,13.25
2023-05-02T05:48:09.001Z,13.31
2023-05-02T05:49:19.758Z,13.39
2023-05-02T05:50:24.165Z,13.46
2023-05-02T05:51:28.814Z,13.53
2023-05-02T05:52:35.648Z,13.58
2023-05-02T05:53:40.058Z,13.61
2023-05-02T05:54:46.022Z,13.58
2023-05-02T05:55:50.546Z,13.50
2023-05-02T05:56:55.297Z,13.49
2023-05-02T05:57:58.403Z,13.42
2023-05-02T05:59:02.209Z,13.44
2023-05-02T06:00:08.008Z,13.48
2023-05-02T06:01:32.133Z,13.54
2023-05-02T06:02:36.268Z,13.61
2023-05-02T06:03:40.298Z,13.66
2023-05-02T06:04:44.161Z,13.72
2023-05-02T06:05:48.076Z,13.74
2023-05-02T06:06:52.183Z,13.76
2023-05-02T06:07:56.106Z,13.79
2023-05-02T06:09:00.098Z,13.82
2023-05-02T06:10:03.673Z,13.88
2023-05-02T06:11:12.054Z,13.93
2023-05-02T06:12:17.371Z,13.97
2023-05-02T06:13:22.671Z,13.98
2023-05-02T06:14:27.482Z,13.96
2023-05-02T06:15:30.911Z,13.91
2023-05-02T06:16:35.054Z,13.87
2023-05-02T06:17:39.144Z,13.80
2023-05-02T06:18:42.874Z,13.85
2023-05-02T06:19:46.062Z,13.86
2023-05-02T06:20:49.690Z,13.85
2023-05-02T06:21:53.332Z,13.86
2023-05-02T06:22:56.901Z,13.85
2023-05-02T06:24:00.362Z,13.91
2023-05-02T06:25:05.848Z,13.95
2023-05-02T06:26:11.098Z,13.98
2023-05-02T06:27:14.704Z,14.03
2023-05-02T06:28:18.596Z,14.09
2023-05-02T06:29:22.764Z,14.13
2023-05-02T06:30:27.343Z,14.18
2023-05-02T06:31:30.402Z,14.24
2023-05-02T06:32:34.209Z,14.34
2023-05-02T06:33:37.709Z,14.44
2023-05-02T06:34:41.062Z,14.54
2023-05-02T06:35:45.040Z,14.64
2023-05-02T06:36:48.485Z,14.73
2023-05-02T06:37:51.985Z,14.79
2023-05-02T06:38:55.288Z,14.84
2023-05-02T06:39:59.207Z,14.90
2023-05-02T06:41:03.335Z,14.97
2023-05-02T06:42:06.992Z,15.01
2023-05-02T06:43:15.052Z,14.94
2023-05-02T06:44:18.544Z,14.91
2023-05-02T06:45:22.241Z,14.96
2023-05-02T06:46:29.039Z,14.91
2023-05-02T06:47:33.404Z,14.91
2023-05-02T06:48:37.554Z,14.96
2023-05-02T06:49:40.804Z,15.05
2023-05-02T06:50:44.415Z,15.11
2023-05-02T06:51:47.927Z,15.15
2023-05-02T06:52:50.895Z,15.11
2023-05-02T06:53:54.415Z,15.16
2023-05-02T06:54:58.623Z,15.19
2023-05-02T06:56:02.078Z,15.18
2023-05-02T06:57:05.790Z,15.14
2023-05-02T06:58:09.258Z,15.14
2023-05-02T06:59:13.013Z,15.26
2023-05-02T07:00:18.142Z,15.39
2023-05-02T07:01:21.736Z,15.35
2023-05-02T07:02:25.011Z,15.50
2023-05-02T07:03:28.707Z,15.64
2023-05-02T07:04:31.990Z,15.75
2023-05-02T07:05:35.444Z,15.90
2023-05-02T07:06:39.112Z,16.14
2023-05-02T07:07:43.441Z,16.38
2023-05-02T07:08:47.050Z,16.56
2023-05-02T07:09:51.056Z,16.74
2023-05-02T07:10:55.002Z,16.82
2023-05-02T07:11:58.874Z,16.79
2023-05-02T07:13:02.432Z,16.82
2023-05-02T07:14:05.995Z,16.87
2023-05-02T07:15:09.651Z,17.01
2023-05-02T07:16:13.189Z,17.08
2023-05-02T07:17:16.879Z,17.35
2023-05-02T07:18:20.707Z,17.40
2023-05-02T07:19:24.156Z,17.49
2023-05-02T07:20:28.013Z,17.70
2023-05-02T07:21:33.394Z,17.68
2023-05-02T07:22:36.559Z,17.71
2023-05-02T07:23:40.419Z,17.93
2023-05-02T07:24:44.041Z,18.00
2023-05-02T07:25:48.815Z,18.21
2023-05-02T07:26:52.888Z,18.42
2023-05-02T07:27:56.433Z,18.64
2023-05-02T07:29:00.504Z,18.79
2023-05-02T07:30:04.735Z,19.01
2023-05-02T07:31:08.450Z,19.30
2023-05-02T07:32:12.467Z,19.35
2023-05-02T07:33:16.152Z,19.59
2023-05-02T07:34:19.472Z,19.57
2023-05-02T07:35:23.144Z,19.96
2023-05-02T07:36:26.898Z,20.37
2023-05-02T07:37:35.456Z,20.85
2023-05-02T07:38:38.959Z,21.23
2023-05-02T07:39:42.422Z,21.76
2023-05-02T07:40:47.735Z,22.04
2023-05-02T07:42:57.940Z,22.45
2023-05-02T07:44:01.852Z,22.30
2023-05-02T07:45:05.594Z,22.01
2023-05-02T07:46:09.741Z,22.19
2023-05-02T07:47:13.502Z,22.27
2023-05-02T07:48:16.728Z,22.38
2023-05-02T07:49:20.956Z,22.26
2023-05-02T07:50:24.891Z,22.08
2023-05-02T07:51:29.148Z,22.02
2023-05-02T07:52:33.338Z,22.32
2023-05-02T07:53:37.533Z,22.46
2023-05-02T07:54:41.136Z,22.19
2023-05-02T07:56:48.421Z,22.70
2023-05-02T07:57:52.040Z,22.83
2023-05-02T07:58:56.160Z,23.05
2023-05-02T08:00:00.606Z,23.34
2023-05-02T08:01:04.581Z,23.57
2023-05-02T08:02:08.594Z,24.06
2023-05-02T08:03:12.422Z,24.34
2023-05-02T08:04:17.007Z,24.35
2023-05-02T08:05:20.872Z,24.52
2023-05-02T08:06:24.398Z,24.72
2023-05-02T08:07:28.331Z,24.49
2023-05-02T08:08:31.808Z,24.31
2023-05-02T08:09:35.625Z,24.56
2023-05-02T08:10:38.932Z,24.30
2023-05-02T08:11:42.859Z,24.16
2023-05-02T08:12:46.415Z,24.31
2023-05-02T08:13:50.425Z,24.28
2023-05-02T08:14:54.252Z,23.92
2023-05-02T08:15:59.345Z,23.95
2023-05-02T08:17:03.030Z,24.03
2023-05-02T08:18:06.688Z,23.84
2023-05-02T08:19:10.688Z,23.81
2023-05-02T08:20:14.360Z,24.18
2023-05-02T08:21:17.965Z,24.17
2023-05-02T08:22:22.342Z,24.50
2023-05-02T08:23:26.394Z,24.72
2023-05-02T08:24:30.006Z,24.96
2023-05-02T08:25:33.527Z,24.91
2023-05-02T08:26:37.582Z,24.68
2023-05-02T08:27:41.696Z,25.19
2023-05-02T08:28:45.508Z,25.47
2023-05-02T08:29:49.160Z,25.60
2023-05-02T08:30:52.988Z,25.43
2023-05-02T08:31:56.297Z,25.90
2023-05-02T08:32:59.698Z,26.02
2023-05-02T08:34:03.182Z,26.44
2023-05-02T08:35:07.415Z,26.77
2023-05-02T08:36:18.530Z,26.74
2023-05-02T08:37:22.168Z,26.96
2023-05-02T08:38:26.014Z,26.80
2023-05-02T08:39:29.821Z,26.82
2023-05-02T08:40:42.201Z,26.55
2023-05-02T08:41:47.254Z,26.31
2023-05-02T08:42:50.602Z,26.23
2023-05-02T08:43:54.189Z,26.31
2023-05-02T08:44:59.024Z,26.36
2023-05-02T08:46:02.567Z,26.56
2023-05-02T08:47:07.268Z,26.80
2023-05-02T08:48:12.911Z,27.38
2023-05-02T08:49:16.632Z,27.80
2023-05-02T08:50:20.836Z,28.24
2023-05-02T08:51:24.392Z,28.50
2023-05-02T08:52:28.354Z,28.69
2023-05-02T08:53:36.161Z,29.07
2023-05-02T08:54:39.605Z,29.13
2023-05-02T08:55:44.749Z,29.50
2023-05-02T08:56:48.653Z,29.59
2023-05-02T08:57:52.582Z,29.60
2023-05-02T08:58:56.408Z,29.83
2023-05-02T09:00:00.236Z,29.82
2023-05-02T09:01:06.272Z,30.03
2023-05-02T09:02:18.943Z,29.69
2023-05-02T09:03:25.006Z,29.25
2023-05-02T09:04:32.474Z,29.44
2023-05-02T09:05:41.533Z,29.83
2023-05-02T09:06:45.882Z,30.09
2023-05-02T09:07:50.350Z,30.20
2023-05-02T09:08:54.455Z,30.47
2023-05-02T09:09:58.117Z,30.53
2023-05-02T09:11:06.402Z,30.24
2023-05-02T09:12:10.786Z,29.92
2023-05-02T09:13:45.195Z,29.81
2023-05-02T09:14:48.361Z,30.38
2023-05-02T09:16:17.785Z,30.32
2023-05-02T09:17:22.797Z,30.47
2023-05-02T09:18:29.018Z,30.47
2023-05-02T09:19:32.710Z,30.35
2023-05-02T09:20:41.556Z,30.34
2023-05-02T09:21:45.027Z,30.13
2023-05-02T09:22:52.900Z,30.10
2023-05-02T09:23:57.988Z,30.39
2023-05-02T09:25:02.512Z,30.59
2023-05-02T09:26:17.211Z,30.69
2023-05-02T09:27:20.930Z,30.97
2023-05-02T09:28:40.154Z,31.34
2023-05-02T09:29:47.324Z,31.55
2023-05-02T09:30:50.578Z,31.17
2023-05-02T09:31:56.607Z,31.48
2023-05-02T09:33:00.685Z,31.78
2023-05-02T09:34:17.655Z,31.89
2023-05-02T09:35:25.273Z,31.83
2023-05-02T09:36:28.684Z,32.07
2023-05-02T09:37:38.262Z,31.85
2023-05-02T09:38:42.436Z,31.75
2023-05-02T09:40:05.811Z,31.58
2023-05-02T09:41:08.964Z,31.66
2023-05-02T09:42:12.640Z,32.03
2023-05-02T09:43:18.049Z,32.48
2023-05-02T09:44:23.537Z,32.68
2023-05-02T09:45:27.693Z,32.85
2023-05-02T09:46:31.708Z,32.80
2023-05-02T09:47:35.241Z,32.97
2023-05-02T09:48:55.015Z,33.26
2023-05-02T09:49:58.318Z,33.50
2023-05-02T09:51:02.195Z,33.62
2023-05-02T09:52:14.492Z,33.75
2023-05-02T09:53:18.413Z,33.51
2023-05-02T09:54:37.575Z,32.93
2023-05-02T09:55:41.550Z,32.91
2023-05-02T09:56:57.865Z,32.46
2023-05-02T09:58:02.086Z,32.33
2023-05-02T09:59:23.670Z,32.46
2023-05-02T10:00:40.921Z,31.90
2023-05-02T10:01:44.741Z,31.88
2023-05-02T10:02:51.365Z,32.17
2023-05-02T10:03:55.150Z,32.18
2023-05-02T10:04:59.554Z,31.29
2023-05-02T10:06:03.634Z,31.10
2023-05-02T10:07:07.676Z,31.25
2023-05-02T10:08:11.507Z,31.75
2023-05-02T10:09:18.860Z,32.01
2023-05-02T10:10:25.077Z,32.29
2023-05-02T10:11:28.548Z,32.32
2023-05-02T10:12:32.320Z,31.89
2023-05-02T10:13:36.097Z,32.48
2023-05-02T10:14:43.179Z,32.37
2023-05-02T10:15:46.820Z,32.48
2023-05-02T10:17:07.698Z,32.59
2023-05-02T10:18:17.195Z,32.95
2023-05-02T10:19:24.959Z,32.95
2023-05-02T10:20:38.120Z,32.50
2023-05-02T10:21:42.281Z,32.13
2023-05-02T10:22:46.748Z,31.26
2023-05-02T10:23:50.415Z,31.22
2023-05-02T10:24:54.751Z,31.67
2023-05-02T10:26:01.260Z,31.70
2023-05-02T10:27:06.569Z,31.17
2023-05-02T10:28:11.125Z,31.23
2023-05-02T10:29:14.476Z,31.63
2023-05-02T10:30:18.496Z,31.54
2023-05-02T10:31:22.486Z,31.60
2023-05-02T10:32:28.176Z,31.70
2023-05-02T10:33:32.532Z,32.07
2023-05-02T10:34:36.351Z,32.34
2023-05-02T10:35:39.535Z,32.16
2023-05-02T10:36:43.314Z,32.36
2023-05-02T10:37:47.430Z,32.55
2023-05-02T10:38:51.420Z,32.94
2023-05-02T10:39:55.680Z,33.29
2023-05-02T10:41:05.068Z,33.46
2023-05-02T10:42:08.753Z,33.66
2023-05-02T10:43:16.315Z,33.92
2023-05-02T10:44:19.892Z,34.23
2023-05-02T10:45:37.340Z,34.40
2023-05-02T10:46:44.101Z,34.66
2023-05-02T10:47:47.835Z,34.90
2023-05-02T10:49:10.762Z,35.17
2023-05-02T10:50:14.254Z,35.45
2023-05-02T10:51:22.192Z,35.54
2023-05-02T10:52:38.869Z,35.57
2023-05-02T10:53:44.777Z,35.14
2023-05-02T10:54:49.005Z,34.97
2023-05-02T10:56:14.830Z,35.06
2023-05-02T10:57:18.004Z,34.81
2023-05-02T10:58:22.098Z,34.81
2023-05-02T10:59:39.053Z,34.27
2023-05-02T11:00:43.068Z,33.58
2023-05-02T11:01:46.959Z,33.10
2023-05-02T11:02:51.266Z,33.52
2023-05-02T11:04:11.964Z,33.81
2023-05-02T11:05:15.560Z,33.85
2023-05-02T11:06:19.564Z,33.83
2023-05-02T11:07:24.160Z,33.78
2023-05-02T11:08:28.016Z,33.49
2023-05-02T11:09:33.607Z,33.41
2023-05-02T11:10:36.918Z,33.29
2023-05-02T11:11:44.786Z,33.44
2023-05-02T11:12:54.623Z,33.59
2023-05-02T11:13:57.978Z,33.52
2023-05-02T11:15:01.879Z,33.37
2023-05-02T11:16:06.238Z,33.60
2023-05-02T11:17:10.478Z,33.54
2023-05-02T11:18:15.037Z,33.74
2023-05-02T11:19:18.507Z,34.04
2023-05-02T11:20:22.574Z,34.27
2023-05-02T11:21:29.901Z,34.50
2023-05-02T11:22:40.004Z,34.48
2023-05-02T11:23:44.727Z,34.84
2023-05-02T11:24:51.504Z,34.55
2023-05-02T11:25:59.023Z,34.63
2023-05-02T11:27:30.391Z,34.00
2023-05-02T11:28:49.100Z,33.61
2023-05-02T11:29:53.490Z,33.80
2023-05-02T11:30:57.982Z,33.76
2023-05-02T11:32:01.877Z,33.16
2023-05-02T11:33:05.392Z,32.62
2023-05-02T11:34:08.650Z,31.96
2023-05-02T11:35:22.461Z,32.11
2023-05-02T11:36:35.172Z,32.16
2023-05-02T11:37:39.501Z,32.15
2023-05-02T11:38:43.635Z,31.77
2023-05-02T11:39:52.053Z,31.78
2023-05-02T11:41:03.614Z,31.77
2023-05-02T11:42:07.271Z,31.61
2023-05-02T11:43:17.423Z,31.71
2023-05-02T11:44:21.998Z,31.71
2023-05-02T11:45:37.972Z,32.07
2023-05-02T11:46:42.296Z,32.38
2023-05-02T11:47:49.409Z,32.82
2023-05-02T11:48:53.371Z,33.19
2023-05-02T11:49:57.155Z,33.12
2023-05-02T11:51:06.189Z,33.37
2023-05-02T11:52:10.395Z,33.51
2023-05-02T11:53:18.892Z,33.40
2023-05-02T11:54:22.654Z,33.15
2023-05-02T11:55:26.088Z,33.28
2023-05-02T11:56:29.710Z,33.57
2023-05-02T11:57:37.036Z,33.40
2023-05-02T11:58:41.013Z,33.52
2023-05-02T12:00:12.005Z,33.11
2023-05-02T12:01:16.435Z,33.10
2023-05-02T12:02:20.433Z,33.09
2023-05-02T12:03:30.485Z,32.92
2023-05-02T12:04:38.595Z,33.18
2023-05-02T12:05:41.996Z,33.57
2023-05-02T12:07:00.936Z,32.89
2023-05-02T12:08:04.782Z,32.14
2023-05-02T12:09:17.775Z,31.62
2023-05-02T12:10:21.528Z,31.39
2023-05-02T12:11:25.451Z,31.56
2023-05-02T12:12:29.239Z,31.63
2023-05-02T12:13:33.024Z,31.43
2023-05-02T12:14:38.567Z,31.60
2023-05-02T12:15:42.959Z,31.58
2023-05-02T12:16:46.752Z,31.69
2023-05-02T12:17:53.250Z,31.73
2023-05-02T12:19:00.272Z,31.61
2023-05-02T12:20:10.341Z,31.32
2023-05-02T12:21:13.999Z,31.26
2023-05-02T12:22:18.062Z,31.39
2023-05-02T12:23:22.177Z,31.49
2023-05-02T12:24:26.077Z,31.39
2023-05-02T12:25:30.153Z,31.14
2023-05-02T12:26:34.637Z,31.14
2023-05-02T12:27:39.009Z,31.39
2023-05-02T12:28:52.728Z,31.40
2023-05-02T12:29:58.025Z,31.56
2023-05-02T12:31:01.309Z,31.59
2023-05-02T12:32:05.572Z,31.73
2023-05-02T12:33:08.887Z,31.95
2023-05-02T12:34:12.833Z,32.07
2023-05-02T12:35:23.474Z,32.14
2023-05-02T12:36:30.500Z,32.06
2023-05-02T12:37:33.979Z,31.87
2023-05-02T12:38:38.079Z,31.87
2023-05-02T12:39:43.432Z,31.97
2023-05-02T12:40:58.502Z,32.17
2023-05-02T12:42:02.067Z,32.52
2023-05-02T12:43:08.664Z,32.66
2023-05-02T12:44:11.841Z,32.80
2023-05-02T12:45:18.866Z,33.04
2023-05-02T12:46:22.603Z,33.27
2023-05-02T12:47:27.423Z,33.33
2023-05-02T12:48:31.399Z,33.31
2023-05-02T12:49:53.530Z,33.41
2023-05-02T12:50:57.053Z,33.61
2023-05-02T12:52:00.847Z,33.68
2023-05-02T12:53:04.627Z,33.75
2023-05-02T12:54:08.189Z,33.82
2023-05-02T12:55:19.167Z,33.77
2023-05-02T12:56:22.711Z,33.83
2023-05-02T12:57:26.304Z,33.97
2023-05-02T12:58:30.431Z,33.92
2023-05-02T12:59:34.175Z,33.99
2023-05-02T13:00:39.986Z,33.98
2023-05-02T13:01:43.776Z,33.96
2023-05-02T13:02:47.003Z,33.90
2023-05-02T13:03:51.962Z,33.85
2023-05-02T13:04:55.462Z,33.82
2023-05-02T13:05:59.101Z,33.85
2023-05-02T13:07:03.249Z,33.86
2023-05-02T13:08:06.843Z,33.73
2023-05-02T13:09:10.469Z,33.66
2023-05-02T13:10:14.320Z,33.68
2023-05-02T13:11:18.901Z,33.67
2023-05-02T13:12:22.791Z,33.59
2023-05-02T13:13:26.761Z,33.50
2023-05-02T13:14:30.167Z,33.37
2023-05-02T13:15:34.003Z,33.41
2023-05-02T13:16:38.407Z,33.40
2023-05-02T13:17:42.181Z,33.36
2023-05-02T13:18:47.217Z,33.27
2023-05-02T13:20:01.081Z,33.28
2023-05-02T13:21:06.955Z,33.24
2023-05-02T13:22:10.040Z,33.25
2023-05-02T13:23:13.356Z,33.30
2023-05-02T13:24:18.531Z,33.25
2023-05-02T13:25:22.352Z,33.27
2023-05-02T13:26:25.577Z,33.28
2023-05-02T13:27:29.346Z,33.33
2023-05-02T13:28:34.587Z,33.38
2023-05-02T13:29:38.503Z,33.35
2023-05-02T13:30:42.671Z,33.33
2023-05-02T13:31:46.488Z,33.27
2023-05-02T13:32:50.334Z,33.37
2023-05-02T13:33:53.949Z,33.40
2023-05-02T13:34:57.783Z,33.40
2023-05-02T13:36:01.011Z,33.44
2023-05-02T13:37:04.662Z,33.37
2023-05-02T13:38:08.480Z,33.33
2023-05-02T13:39:12.305Z,33.35
2023-05-02T13:40:16.537Z,33.31
2023-05-02T13:41:20.453Z,33.34
2023-05-02T13:42:23.595Z,33.25
2023-05-02T13:43:26.933Z,32.93
2023-05-02T13:44:31.844Z,33.01
2023-05-02T13:45:35.474Z,33.04
2023-05-02T13:46:39.590Z,32.91
2023-05-02T13:47:43.693Z,33.03
2023-05-02T13:48:47.065Z,33.06
2023-05-02T13:49:50.443Z,33.10
2023-05-02T13:50:54.251Z,33.19
2023-05-02T13:51:58.077Z,33.10
2023-05-02T13:53:02.121Z,32.89
2023-05-02T13:54:06.067Z,32.83
2023-05-02T13:55:10.305Z,32.87
2023-05-02T13:56:14.019Z,32.90
2023-05-02T13:57:17.821Z,33.00
2023-05-02T13:58:21.840Z,33.04
2023-05-02T13:59:25.198Z,33.05
2023-05-02T14:00:30.310Z,33.06
2023-05-02T14:01:34.331Z,33.07
2023-05-02T14:02:38.338Z,33.01
2023-05-02T14:03:42.200Z,32.96
2023-05-02T14:04:46.171Z,32.93
2023-05-02T14:05:49.437Z,32.89
2023-05-02T14:06:53.618Z,32.84
2023-05-02T14:07:57.514Z,32.78
2023-05-02T14:09:01.343Z,32.68
2023-05-02T14:10:05.487Z,32.69
2023-05-02T14:11:09.071Z,32.69
2023-05-02T14:12:12.451Z,32.66
2023-05-02T14:13:16.270Z,32.56
2023-05-02T14:14:20.531Z,32.52